Station Charts

 

Station Historical Data
Daily Summary for January 13, 2018 Units:  Both    English   Metric
Next Day »
Daily Weekly Monthly Yearly Custom
  High: Low: Average:
Temperature: 56.5 °F /  13.6 °C 45.3 °F /  7.4 °C 48.9 °F /  9.4 °C
Dew Point: 52.3 °F /  11.3 °C 43.4 °F /  6.3 °C 46.5 °F /  8.1 °C
Humidity: 93% 83% 92%
Wind Speed: 6.9mph /  11.1km/h - 0.7mph /  1.1km/h
Wind Gust: 6.9mph /  11.1km/h - -
Wind- - South
Pressure: 30.38 in /  1028.7 hPa 30.14 in /  1020.5 hPa -
Precipitation: 0.02 in /  0.51 mm    
Historical Graphs
 
 
Tabular Data for January 13, 2018
Time Temperature Dew Point Pressure Wind Wind Speed Wind Gust Humidity Rainfall Rate (Hourly)
00:03 45.3 °F /  7.4 °C 43.4 °F /  6.3 °C 30.37in /  1028.3hPa Calm     93% 0.00in /  0mm
00:10 45.3 °F /  7.4 °C 43.4 °F /  6.3 °C 30.37in /  1028.3hPa Calm     93% 0.00in /  0mm
00:18 45.3 °F /  7.4 °C 43.4 °F /  6.3 °C 30.37in /  1028.3hPa Calm     93% 0.00in /  0mm
00:23 45.3 °F /  7.4 °C 43.4 °F /  6.3 °C 30.37in /  1028.3hPa Calm     93% 0.00in /  0mm
00:31 45.5 °F /  7.5 °C 43.6 °F /  6.4 °C 30.37in /  1028.3hPa Calm     93% 0.00in /  0mm
00:48 45.5 °F /  7.5 °C 43.6 °F /  6.4 °C 30.37in /  1028.3hPa Calm     93% 0.00in /  0mm
00:53 45.5 °F /  7.5 °C 43.6 °F /  6.4 °C 30.37in /  1028.3hPa Calm     93% 0.00in /  0mm
01:00 45.3 °F /  7.4 °C 43.4 °F /  6.3 °C 30.37in /  1028.3hPa Calm     93% 0.00in /  0mm
01:10 45.3 °F /  7.4 °C 43.4 °F /  6.3 °C 30.38in /  1028.7hPa Calm     93% 0.00in /  0mm
01:22 45.3 °F /  7.4 °C 43.4 °F /  6.3 °C 30.38in /  1028.7hPa Calm     93% 0.00in /  0mm
01:33 45.3 °F /  7.4 °C 43.4 °F /  6.3 °C 30.37in /  1028.3hPa Calm     93% 0.00in /  0mm
01:38 45.3 °F /  7.4 °C 43.4 °F /  6.3 °C 30.37in /  1028.3hPa Calm     93% 0.00in /  0mm
01:43 45.3 °F /  7.4 °C 43.4 °F /  6.3 °C 30.37in /  1028.3hPa Calm     93% 0.00in /  0mm
01:51 45.3 °F /  7.4 °C 43.4 °F /  6.3 °C 30.38in /  1028.7hPa Calm     93% 0.00in /  0mm
02:01 45.3 °F /  7.4 °C 43.4 °F /  6.3 °C 30.38in /  1028.7hPa Calm     93% 0.00in /  0mm
02:07 45.3 °F /  7.4 °C 43.4 °F /  6.3 °C 30.38in /  1028.7hPa Calm     93% 0.00in /  0mm
02:14 45.3 °F /  7.4 °C 43.4 °F /  6.3 °C 30.38in /  1028.7hPa Calm     93% 0.00in /  0mm
02:25 45.3 °F /  7.4 °C 43.4 °F /  6.3 °C 30.25in /  1024.3hPa Calm     93% 0.00in /  0mm
02:36 45.3 °F /  7.4 °C 43.4 °F /  6.3 °C 30.25in /  1024.3hPa Calm     93% 0.00in /  0mm
02:47 45.5 °F /  7.5 °C 43.6 °F /  6.4 °C 30.25in /  1024.3hPa Calm     93% 0.00in /  0mm
02:52 45.3 °F /  7.4 °C 43.4 °F /  6.3 °C 30.25in /  1024.3hPa Calm     93% 0.00in /  0mm
03:00 45.5 °F /  7.5 °C 43.6 °F /  6.4 °C 30.25in /  1024.3hPa Calm     93% 0.00in /  0mm
03:05 45.5 °F /  7.5 °C 43.6 °F /  6.4 °C 30.25in /  1024.3hPa Calm     93% 0.00in /  0mm
03:21 45.5 °F /  7.5 °C 43.6 °F /  6.4 °C 30.26in /  1024.6hPa Calm     93% 0.00in /  0mm
03:27 45.7 °F /  7.6 °C 43.8 °F /  6.6 °C 30.26in /  1024.6hPa Calm     93% 0.00in /  0mm
03:37 45.7 °F /  7.6 °C 43.8 °F /  6.6 °C 30.26in /  1024.6hPa Calm     93% 0.00in /  0mm
03:41 45.7 °F /  7.6 °C 43.8 °F /  6.6 °C 30.26in /  1024.6hPa Calm     93% 0.00in /  0mm
03:56 45.5 °F /  7.5 °C 43.6 °F /  6.4 °C 30.25in /  1024.3hPa Calm     93% 0.00in /  0mm
04:01 45.5 °F /  7.5 °C 43.6 °F /  6.4 °C 30.25in /  1024.3hPa Calm     93% 0.00in /  0mm
04:06 45.5 °F /  7.5 °C 43.6 °F /  6.4 °C 30.25in /  1024.3hPa Calm     93% 0.00in /  0mm
04:16 45.3 °F /  7.4 °C 43.4 °F /  6.3 °C 30.25in /  1024.3hPa Calm     93% 0.00in /  0mm
04:32 45.3 °F /  7.4 °C 43.4 °F /  6.3 °C 30.25in /  1024.3hPa Calm     93% 0.00in /  0mm
04:37 45.5 °F /  7.5 °C 43.6 °F /  6.4 °C 30.25in /  1024.3hPa Calm     93% 0.00in /  0mm
04:43 45.5 °F /  7.5 °C 43.6 °F /  6.4 °C 30.25in /  1024.3hPa Calm     93% 0.00in /  0mm
04:48 45.5 °F /  7.5 °C 43.6 °F /  6.4 °C 30.26in /  1024.6hPa Calm     93% 0.00in /  0mm
04:54 45.5 °F /  7.5 °C 43.6 °F /  6.4 °C 30.26in /  1024.6hPa Calm     93% 0.00in /  0mm
05:00 45.5 °F /  7.5 °C 43.6 °F /  6.4 °C 30.26in /  1024.6hPa Calm     93% 0.00in /  0mm
05:06 45.5 °F /  7.5 °C 43.6 °F /  6.4 °C 30.26in /  1024.6hPa Calm     93% 0.00in /  0mm
05:13 45.5 °F /  7.5 °C 43.6 °F /  6.4 °C 30.26in /  1024.6hPa Calm     93% 0.00in /  0mm
05:18 45.5 °F /  7.5 °C 43.6 °F /  6.4 °C 30.26in /  1024.6hPa Calm     93% 0.00in /  0mm
05:24 45.5 °F /  7.5 °C 43.6 °F /  6.4 °C 30.26in /  1024.6hPa Calm     93% 0.00in /  0mm
05:34 45.7 °F /  7.6 °C 43.8 °F /  6.6 °C 30.26in /  1024.6hPa Calm     93% 0.02in /  0.51mm
05:42 45.7 °F /  7.6 °C 43.8 °F /  6.6 °C 30.26in /  1024.6hPa Calm     93% 0.02in /  0.51mm
05:55 45.7 °F /  7.6 °C 43.8 °F /  6.6 °C 30.26in /  1024.6hPa Calm     93% 0.02in /  0.51mm
06:00 45.7 °F /  7.6 °C 43.8 °F /  6.6 °C 30.26in /  1024.6hPa Calm     93% 0.02in /  0.51mm
06:08 45.7 °F /  7.6 °C 43.8 °F /  6.6 °C 30.26in /  1024.6hPa Calm     93% 0.02in /  0.51mm
06:16 45.7 °F /  7.6 °C 43.8 °F /  6.6 °C 30.26in /  1024.6hPa Calm     93% 0.02in /  0.51mm
06:28 45.7 °F /  7.6 °C 43.8 °F /  6.6 °C 30.26in /  1024.6hPa Calm     93% 0.02in /  0.51mm
06:43 45.7 °F /  7.6 °C 43.8 °F /  6.6 °C 30.26in /  1024.6hPa Calm     93% 0.00in /  0mm
06:48 45.7 °F /  7.6 °C 43.8 °F /  6.6 °C 30.26in /  1024.6hPa Calm     93% 0.00in /  0mm
06:57 45.7 °F /  7.6 °C 43.8 °F /  6.6 °C 30.26in /  1024.6hPa Calm     93% 0.00in /  0mm
07:04 45.7 °F /  7.6 °C 43.8 °F /  6.6 °C 30.26in /  1024.6hPa Calm     93% 0.00in /  0mm
07:09 45.7 °F /  7.6 °C 43.8 °F /  6.6 °C 30.26in /  1024.6hPa Calm     93% 0.00in /  0mm
07:14 45.7 °F /  7.6 °C 43.8 °F /  6.6 °C 30.26in /  1024.6hPa Calm     93% 0.00in /  0mm
07:23 45.7 °F /  7.6 °C 43.8 °F /  6.6 °C 30.26in /  1024.6hPa Calm     93% 0.00in /  0mm
07:43 45.7 °F /  7.6 °C 43.8 °F /  6.6 °C 30.26in /  1024.6hPa Calm     93% 0.00in /  0mm
07:48 45.7 °F /  7.6 °C 43.8 °F /  6.6 °C 30.26in /  1024.6hPa Calm     93% 0.00in /  0mm
07:55 45.7 °F /  7.6 °C 43.8 °F /  6.6 °C 30.26in /  1024.6hPa Calm     93% 0.00in /  0mm
08:05 45.9 °F /  7.7 °C 44.0 °F /  6.7 °C 30.27in /  1024.9hPa Calm     93% 0.00in /  0mm
08:10 45.9 °F /  7.7 °C 44.0 °F /  6.7 °C 30.27in /  1024.9hPa Calm     93% 0.00in /  0mm
08:25 45.9 °F /  7.7 °C 44.0 °F /  6.7 °C 30.27in /  1024.9hPa Calm     93% 0.00in /  0mm
08:35 46.0 °F /  7.8 °C 44.1 °F /  6.7 °C 30.27in /  1024.9hPa Calm     93% 0.00in /  0mm
08:45 46.2 °F /  7.9 °C 44.3 °F /  6.8 °C 30.27in /  1024.9hPa Calm     93% 0.00in /  0mm
09:07 46.8 °F /  8.2 °C 44.8 °F /  7.1 °C 30.28in /  1025.3hPa Calm     93% 0.00in /  0mm
09:17 46.9 °F /  8.3 °C 45.0 °F /  7.2 °C 30.28in /  1025.3hPa Calm     93% 0.00in /  0mm
09:26 47.1 °F /  8.4 °C 45.2 °F /  7.3 °C 30.28in /  1025.3hPa Calm     93% 0.00in /  0mm
09:31 47.3 °F /  8.5 °C 45.4 °F /  7.4 °C 30.28in /  1025.3hPa Calm     93% 0.00in /  0mm
09:40 47.5 °F /  8.6 °C 45.6 °F /  7.6 °C 30.29in /  1025.6hPa Calm     93% 0.00in /  0mm
09:51 47.7 °F /  8.7 °C 45.7 °F /  7.6 °C 30.29in /  1025.6hPa Calm     93% 0.00in /  0mm
09:58 47.8 °F /  8.8 °C 45.9 °F /  7.7 °C 30.29in /  1025.6hPa Calm     93% 0.00in /  0mm
10:09 48.2 °F /  9 °C 46.3 °F /  7.9 °C 30.29in /  1025.6hPa Calm     93% 0.00in /  0mm
10:16 48.6 °F /  9.2 °C 46.6 °F /  8.1 °C 30.29in /  1025.6hPa Calm     93% 0.00in /  0mm
10:30 48.9 °F /  9.4 °C 47.0 °F /  8.3 °C 30.30in /  1026hPa Calm     93% 0.00in /  0mm
10:39 49.5 °F /  9.7 °C 47.5 °F /  8.6 °C 30.30in /  1026hPa Calm     93% 0.00in /  0mm
10:49 50.2 °F /  10.1 °C 48.2 °F /  9 °C 30.30in /  1026hPa Calm     93% 0.00in /  0mm
10:54 50.5 °F /  10.3 °C 48.6 °F /  9.2 °C 30.30in /  1026hPa Calm     93% 0.00in /  0mm
11:06 51.4 °F /  10.8 °C 49.5 °F /  9.7 °C 30.29in /  1025.6hPa Calm     93% 0.00in /  0mm
11:17 52.3 °F /  11.3 °C 50.4 °F /  10.2 °C 30.28in /  1025.3hPa NNW 1.4mph /  2.3km/h   93% 0.00in /  0mm
11:23 52.7 °F /  11.5 °C 50.4 °F /  10.2 °C 30.28in /  1025.3hPa NNE 2.3mph /  3.7km/h   92% 0.00in /  0mm
11:30 52.9 °F /  11.6 °C 50.6 °F /  10.3 °C 30.28in /  1025.3hPa Calm     92% 0.00in /  0mm
11:39 52.9 °F /  11.6 °C 50.3 °F /  10.2 °C 30.28in /  1025.3hPa Calm     91% 0.00in /  0mm
11:50 53.1 °F /  11.7 °C 50.5 °F /  10.3 °C 30.27in /  1024.9hPa North 2.3mph /  3.7km/h   91% 0.00in /  0mm
11:59 53.1 °F /  11.7 °C 50.5 °F /  10.3 °C 30.27in /  1024.9hPa Calm     91% 0.00in /  0mm
12:04 53.4 °F /  11.9 °C 50.9 °F /  10.5 °C 30.26in /  1024.6hPa Calm     91% 0.00in /  0mm
12:17 54.1 °F /  12.3 °C 51.3 °F /  10.7 °C 30.25in /  1024.3hPa Calm     90% 0.00in /  0mm
12:27 54.5 °F /  12.5 °C 51.3 °F /  10.7 °C 30.25in /  1024.3hPa Calm     89% 0.00in /  0mm
12:32 54.7 °F /  12.6 °C 51.8 °F /  11 °C 30.25in /  1024.3hPa Calm     90% 0.00in /  0mm
12:40 55.2 °F /  12.9 °C 52.0 °F /  11.1 °C 30.25in /  1024.3hPa Calm     89% 0.00in /  0mm
12:45 55.6 °F /  13.1 °C 52.1 °F /  11.2 °C 30.25in /  1024.3hPa Calm     88% 0.00in /  0mm
12:50 55.8 °F /  13.2 °C 52.3 °F /  11.3 °C 30.24in /  1023.9hPa Calm     88% 0.00in /  0mm
12:57 55.6 °F /  13.1 °C 51.8 °F /  11 °C 30.24in /  1023.9hPa Calm     87% 0.00in /  0mm
13:03 55.2 °F /  12.9 °C 51.7 °F /  10.9 °C 30.24in /  1023.9hPa NNW 6.9mph /  11.1km/h   88% 0.00in /  0mm
13:08 55.0 °F /  12.8 °C 51.5 °F /  10.8 °C 30.24in /  1023.9hPa NNW 4.7mph /  7.6km/h 4.7mph /  7.6km/h 88% 0.00in /  0mm
13:21 55.0 °F /  12.8 °C 51.9 °F /  11.1 °C 30.23in /  1023.6hPa NE 2.3mph /  3.7km/h 2.3mph /  3.7km/h 89% 0.00in /  0mm
13:28 55.0 °F /  12.8 °C 51.9 °F /  11.1 °C 30.23in /  1023.6hPa NNW 3.5mph /  5.6km/h   89% 0.00in /  0mm
13:48 55.6 °F /  13.1 °C 52.1 °F /  11.2 °C 30.23in /  1023.6hPa NE 2.3mph /  3.7km/h   88% 0.00in /  0mm
13:53 55.6 °F /  13.1 °C 51.5 °F /  10.8 °C 30.23in /  1023.6hPa NNW 2.3mph /  3.7km/h   86% 0.00in /  0mm
14:01 55.8 °F /  13.2 °C 51.6 °F /  10.9 °C 30.22in /  1023.2hPa North 4.6mph /  7.4km/h   86% 0.00in /  0mm
14:07 55.8 °F /  13.2 °C 51.6 °F /  10.9 °C 30.22in /  1023.2hPa Calm   1.4mph /  2.3km/h 86% 0.00in /  0mm
14:12 55.8 °F /  13.2 °C 51.6 °F /  10.9 °C 30.22in /  1023.2hPa Calm   1.4mph /  2.3km/h 86% 0.00in /  0mm
14:22 55.9 °F /  13.3 °C 51.8 °F /  11 °C 30.22in /  1023.2hPa Calm     86% 0.00in /  0mm
14:27 55.9 °F /  13.3 °C 52.1 °F /  11.2 °C 30.22in /  1023.2hPa Calm     87% 0.00in /  0mm
14:35 56.1 °F /  13.4 °C 52.3 °F /  11.3 °C 30.22in /  1023.2hPa Calm     87% 0.00in /  0mm
14:40 56.1 °F /  13.4 °C 52.0 °F /  11.1 °C 30.22in /  1023.2hPa Calm     86% 0.00in /  0mm
14:52 56.3 °F /  13.5 °C 51.5 °F /  10.8 °C 30.22in /  1023.2hPa Calm     84% 0.00in /  0mm
14:57 56.5 °F /  13.6 °C 51.4 °F /  10.8 °C 30.22in /  1023.2hPa NNW 4.6mph /  7.4km/h   83% 0.00in /  0mm
15:02 56.5 °F /  13.6 °C 51.7 °F /  10.9 °C 30.22in /  1023.2hPa North 2.3mph /  3.7km/h   84% 0.00in /  0mm
15:07 56.5 °F /  13.6 °C 51.4 °F /  10.8 °C 30.22in /  1023.2hPa Calm   1.4mph /  2.3km/h 83% 0.00in /  0mm
15:19 56.5 °F /  13.6 °C 52.0 °F /  11.1 °C 30.22in /  1023.2hPa Calm     85% 0.00in /  0mm
15:26 56.3 °F /  13.5 °C 51.8 °F /  11 °C 30.22in /  1023.2hPa North 3.5mph /  5.6km/h   85% 0.00in /  0mm
15:34 55.9 °F /  13.3 °C 51.5 °F /  10.8 °C 30.22in /  1023.2hPa NNE 2.3mph /  3.7km/h   85% 0.00in /  0mm
15:41 55.6 °F /  13.1 °C 51.5 °F /  10.8 °C 30.22in /  1023.2hPa NNW 2.9mph /  4.7km/h   86% 0.00in /  0mm
15:48 55.0 °F /  12.8 °C 50.9 °F /  10.5 °C 30.21in /  1022.9hPa Calm     86% 0.00in /  0mm
15:58 54.7 °F /  12.6 °C 50.9 °F /  10.5 °C 30.21in /  1022.9hPa North 2.3mph /  3.7km/h   87% 0.00in /  0mm
16:08 54.3 °F /  12.4 °C 50.8 °F /  10.4 °C 30.21in /  1022.9hPa Calm     88% 0.00in /  0mm
16:18 54.0 °F /  12.2 °C 50.5 °F /  10.3 °C 30.20in /  1022.6hPa Calm     88% 0.00in /  0mm
16:28 53.4 °F /  11.9 °C 50.0 °F /  10 °C 30.20in /  1022.6hPa Calm     88% 0.00in /  0mm
16:34 53.2 °F /  11.8 °C 50.1 °F /  10.1 °C 30.20in /  1022.6hPa NNW 4.6mph /  7.4km/h   89% 0.00in /  0mm
16:39 52.9 °F /  11.6 °C 49.7 °F /  9.8 °C 30.20in /  1022.6hPa Calm     89% 0.00in /  0mm
16:44 52.7 °F /  11.5 °C 49.5 °F /  9.7 °C 30.20in /  1022.6hPa NNE 2.3mph /  3.7km/h   89% 0.00in /  0mm
16:51 52.3 °F /  11.3 °C 49.5 °F /  9.7 °C 30.19in /  1022.2hPa NNW 6.2mph /  10km/h   90% 0.00in /  0mm
16:57 52.2 °F /  11.2 °C 49.3 °F /  9.6 °C 30.19in /  1022.2hPa NNE 4.6mph /  7.4km/h 4.6mph /  7.4km/h 90% 0.00in /  0mm
17:04 52.0 °F /  11.1 °C 49.1 °F /  9.5 °C 30.19in /  1022.2hPa NNW 3.5mph /  5.6km/h 3.5mph /  5.6km/h 90% 0.00in /  0mm
17:19 51.4 °F /  10.8 °C 48.9 °F /  9.4 °C 30.19in /  1022.2hPa Calm     91% 0.00in /  0mm
17:25 51.3 °F /  10.7 °C 48.7 °F /  9.3 °C 30.19in /  1022.2hPa NNW 1.8mph /  2.9km/h   91% 0.00in /  0mm
17:34 50.7 °F /  10.4 °C 48.2 °F /  9 °C 30.18in /  1021.9hPa Calm     91% 0.00in /  0mm
17:40 50.5 °F /  10.3 °C 48.0 °F /  8.9 °C 30.18in /  1021.9hPa Calm     91% 0.00in /  0mm
17:45 50.4 °F /  10.2 °C 47.8 °F /  8.8 °C 30.18in /  1021.9hPa Calm     91% 0.00in /  0mm
17:53 49.8 °F /  9.9 °C 47.6 °F /  8.7 °C 30.17in /  1021.6hPa Calm     92% 0.00in /  0mm
18:00 49.5 °F /  9.7 °C 47.2 °F /  8.4 °C 30.17in /  1021.6hPa Calm     92% 0.00in /  0mm
18:25 48.7 °F /  9.3 °C 46.8 °F /  8.2 °C 30.17in /  1021.6hPa Calm     93% 0.00in /  0mm
18:32 48.7 °F /  9.3 °C 46.8 °F /  8.2 °C 30.17in /  1021.6hPa Calm     93% 0.00in /  0mm
18:39 48.6 °F /  9.2 °C 46.6 °F /  8.1 °C 30.17in /  1021.6hPa Calm     93% 0.00in /  0mm
19:08 48.4 °F /  9.1 °C 46.4 °F /  8 °C 30.16in /  1021.2hPa Calm     93% 0.00in /  0mm
19:13 48.2 °F /  9 °C 46.3 °F /  7.9 °C 30.16in /  1021.2hPa Calm     93% 0.00in /  0mm
19:18 48.0 °F /  8.9 °C 46.1 °F /  7.8 °C 30.17in /  1021.6hPa ENE 2.3mph /  3.7km/h   93% 0.00in /  0mm
19:26 47.8 °F /  8.8 °C 45.9 °F /  7.7 °C 30.17in /  1021.6hPa Calm     93% 0.00in /  0mm
19:32 47.7 °F /  8.7 °C 45.7 °F /  7.6 °C 30.17in /  1021.6hPa Calm     93% 0.00in /  0mm
19:37 47.5 °F /  8.6 °C 45.6 °F /  7.6 °C 30.17in /  1021.6hPa Calm     93% 0.00in /  0mm
19:48 47.3 °F /  8.5 °C 45.4 °F /  7.4 °C 30.17in /  1021.6hPa Calm     93% 0.00in /  0mm
19:53 47.1 °F /  8.4 °C 45.2 °F /  7.3 °C 30.17in /  1021.6hPa Calm     93% 0.00in /  0mm
19:59 47.3 °F /  8.5 °C 45.4 °F /  7.4 °C 30.17in /  1021.6hPa NNE 4.6mph /  7.4km/h   93% 0.00in /  0mm
20:07 47.7 °F /  8.7 °C 45.7 °F /  7.6 °C 30.16in /  1021.2hPa NE 6.9mph /  11.1km/h 6.9mph /  11.1km/h 93% 0.00in /  0mm
20:14 47.7 °F /  8.7 °C 45.7 °F /  7.6 °C 30.16in /  1021.2hPa NNW 3.5mph /  5.6km/h 3.5mph /  5.6km/h 93% 0.00in /  0mm
20:19 47.7 °F /  8.7 °C 45.7 °F /  7.6 °C 30.16in /  1021.2hPa North 3.5mph /  5.6km/h 3.5mph /  5.6km/h 93% 0.00in /  0mm
20:25 47.7 °F /  8.7 °C 45.7 °F /  7.6 °C 30.16in /  1021.2hPa North 2.9mph /  4.7km/h 2.9mph /  4.7km/h 93% 0.00in /  0mm
20:32 47.7 °F /  8.7 °C 45.7 °F /  7.6 °C 30.16in /  1021.2hPa North 5.8mph /  9.3km/h 5.8mph /  9.3km/h 93% 0.00in /  0mm
20:46 47.7 °F /  8.7 °C 45.7 °F /  7.6 °C 30.16in /  1021.2hPa North 6.4mph /  10.3km/h   93% 0.00in /  0mm
20:51 47.7 °F /  8.7 °C 45.7 °F /  7.6 °C 30.16in /  1021.2hPa Calm     93% 0.00in /  0mm
20:56 47.7 °F /  8.7 °C 45.7 °F /  7.6 °C 30.16in /  1021.2hPa ENE 3.5mph /  5.6km/h 3.5mph /  5.6km/h 93% 0.00in /  0mm
21:05 47.7 °F /  8.7 °C 45.7 °F /  7.6 °C 30.16in /  1021.2hPa NW 5.8mph /  9.3km/h 5.8mph /  9.3km/h 93% 0.00in /  0mm
21:15 47.5 °F /  8.6 °C 45.6 °F /  7.6 °C 30.16in /  1021.2hPa Calm   1.4mph /  2.3km/h 93% 0.00in /  0mm
21:20 47.5 °F /  8.6 °C 45.6 °F /  7.6 °C 30.16in /  1021.2hPa North 2.0mph /  3.2km/h   93% 0.00in /  0mm
21:25 47.5 °F /  8.6 °C 45.6 °F /  7.6 °C 30.16in /  1021.2hPa Calm     93% 0.00in /  0mm
21:30 47.5 °F /  8.6 °C 45.6 °F /  7.6 °C 30.16in /  1021.2hPa Calm     93% 0.00in /  0mm
21:47 47.1 °F /  8.4 °C 45.2 °F /  7.3 °C 30.16in /  1021.2hPa Calm     93% 0.00in /  0mm
21:55 47.1 °F /  8.4 °C 45.2 °F /  7.3 °C 30.16in /  1021.2hPa Calm     93% 0.00in /  0mm
22:00 47.1 °F /  8.4 °C 45.2 °F /  7.3 °C 30.16in /  1021.2hPa Calm     93% 0.00in /  0mm
22:18 47.1 °F /  8.4 °C 45.2 °F /  7.3 °C 30.16in /  1021.2hPa Calm     93% 0.00in /  0mm
22:23 47.1 °F /  8.4 °C 45.2 °F /  7.3 °C 30.16in /  1021.2hPa Calm     93% 0.00in /  0mm
22:28 46.9 °F /  8.3 °C 45.0 °F /  7.2 °C 30.16in /  1021.2hPa Calm     93% 0.00in /  0mm
22:40 46.9 °F /  8.3 °C 45.0 °F /  7.2 °C 30.16in /  1021.2hPa Calm     93% 0.00in /  0mm
22:52 46.8 °F /  8.2 °C 44.8 °F /  7.1 °C 30.15in /  1020.9hPa Calm     93% 0.00in /  0mm
23:07 46.8 °F /  8.2 °C 44.8 °F /  7.1 °C 30.15in /  1020.9hPa Calm     93% 0.00in /  0mm
23:16 46.6 °F /  8.1 °C 44.7 °F /  7.1 °C 30.15in /  1020.9hPa Calm     93% 0.00in /  0mm
23:31 46.6 °F /  8.1 °C 44.7 °F /  7.1 °C 30.14in /  1020.5hPa Calm     93% 0.00in /  0mm
23:36 46.4 °F /  8 °C 44.5 °F /  6.9 °C 30.14in /  1020.5hPa Calm     93% 0.00in /  0mm
23:44 46.4 °F /  8 °C 44.5 °F /  6.9 °C 30.14in /  1020.5hPa Calm     93% 0.00in /  0mm
23:49 46.2 °F /  7.9 °C 44.3 °F /  6.8 °C 30.14in /  1020.5hPa Calm     93% 0.00in /  0mm
23:56 46.2 °F /  7.9 °C 44.3 °F /  6.8 °C 30.14in /  1020.5hPa Calm     93% 0.00in /  0mm
Amateur Radio Station WA6MVG